createdAt,value
2022-12-11T00:02:03.065Z,51.34
2022-12-11T00:04:29.356Z,50.95
2022-12-11T00:06:55.763Z,51.25
2022-12-11T00:09:22.264Z,51.73
2022-12-11T00:11:48.595Z,51.79
2022-12-11T00:14:14.882Z,51.53
2022-12-11T00:16:41.308Z,52.39
2022-12-11T00:19:07.782Z,51.93
2022-12-11T00:21:34.097Z,51.57
2022-12-11T00:24:00.373Z,51.00
2022-12-11T00:26:26.690Z,50.63
2022-12-11T00:28:53.717Z,51.29
2022-12-11T00:31:20.103Z,52.06
2022-12-11T00:33:48.934Z,53.73
2022-12-11T00:36:16.080Z,52.62
2022-12-11T00:38:42.955Z,53.18
2022-12-11T00:41:09.252Z,53.15
2022-12-11T00:43:35.562Z,52.70
2022-12-11T00:46:01.949Z,52.76
2022-12-11T00:48:28.236Z,52.31
2022-12-11T00:50:54.516Z,51.58
2022-12-11T00:53:20.910Z,51.55
2022-12-11T00:55:47.211Z,51.77
2022-12-11T00:58:13.635Z,51.88
2022-12-11T01:00:40.534Z,51.88
2022-12-11T01:03:06.911Z,52.00
2022-12-11T01:05:33.213Z,52.26
2022-12-11T01:07:59.545Z,52.82
2022-12-11T01:10:26.350Z,52.29
2022-12-11T01:13:12.936Z,52.61
2022-12-11T01:15:41.771Z,52.66
2022-12-11T01:18:08.442Z,52.11
2022-12-11T01:20:34.763Z,52.39
2022-12-11T01:23:01.040Z,52.32
2022-12-11T01:25:27.710Z,52.52
2022-12-11T01:27:54.245Z,52.54
2022-12-11T01:30:21.024Z,53.01
2022-12-11T01:32:47.289Z,51.85
2022-12-11T01:35:13.672Z,51.94
2022-12-11T01:37:39.990Z,52.20
2022-12-11T01:40:06.695Z,52.69
2022-12-11T01:42:32.960Z,52.96
2022-12-11T01:45:18.020Z,51.83
2022-12-11T01:47:44.321Z,51.19
2022-12-11T01:50:10.604Z,50.44
2022-12-11T01:52:36.894Z,51.31
2022-12-11T01:55:03.160Z,51.35
2022-12-11T01:57:29.413Z,50.51
2022-12-11T01:59:55.700Z,49.81
2022-12-11T02:02:26.587Z,49.14
2022-12-11T02:04:52.921Z,50.12
2022-12-11T02:07:19.240Z,50.82
2022-12-11T02:09:46.067Z,51.92
2022-12-11T02:12:15.431Z,51.65
2022-12-11T02:14:47.754Z,51.43
2022-12-11T02:17:21.987Z,51.73
2022-12-11T02:20:14.526Z,51.83
2022-12-11T02:22:47.644Z,50.71
2022-12-11T02:25:17.202Z,50.22
2022-12-11T02:27:47.222Z,49.93
2022-12-11T02:30:14.288Z,50.71
2022-12-11T02:32:45.894Z,50.61
2022-12-11T02:35:12.518Z,50.08
2022-12-11T02:37:39.176Z,49.36
2022-12-11T02:40:06.509Z,49.25
2022-12-11T02:42:32.781Z,50.25
2022-12-11T02:44:59.256Z,49.70
2022-12-11T02:47:25.625Z,49.19
2022-12-11T02:49:51.973Z,49.61
2022-12-11T02:52:18.922Z,49.66
2022-12-11T02:54:45.210Z,49.97
2022-12-11T02:57:12.269Z,50.52
2022-12-11T02:59:39.269Z,51.22
2022-12-11T03:02:05.579Z,50.35
2022-12-11T03:04:31.880Z,49.89
2022-12-11T03:07:00.051Z,49.63
2022-12-11T03:09:27.035Z,49.06
2022-12-11T03:11:53.297Z,49.68
2022-12-11T03:14:19.593Z,50.28
2022-12-11T03:16:48.762Z,49.76
2022-12-11T03:19:15.030Z,51.06
2022-12-11T03:21:47.420Z,50.99
2022-12-11T03:24:15.164Z,51.31
2022-12-11T03:26:45.792Z,51.08
2022-12-11T03:29:16.880Z,50.77
2022-12-11T03:31:43.884Z,50.32
2022-12-11T03:34:20.242Z,49.43
2022-12-11T03:36:46.501Z,48.54
2022-12-11T03:39:13.768Z,48.95
2022-12-11T03:41:40.111Z,49.23
2022-12-11T03:44:06.744Z,49.95
2022-12-11T03:46:34.144Z,49.69
2022-12-11T03:49:01.745Z,49.21
2022-12-11T03:51:28.876Z,49.32
2022-12-11T03:53:55.145Z,48.56
2022-12-11T03:56:21.416Z,49.12
2022-12-11T03:58:47.733Z,48.66
2022-12-11T04:01:14.014Z,48.49
2022-12-11T04:03:40.457Z,48.54
2022-12-11T04:06:06.851Z,49.23
2022-12-11T04:08:33.126Z,49.30
2022-12-11T04:11:18.159Z,49.61
2022-12-11T04:13:44.445Z,50.63
2022-12-11T04:16:10.728Z,50.92
2022-12-11T04:18:55.411Z,51.12
2022-12-11T04:21:40.229Z,49.76
2022-12-11T04:24:15.891Z,49.05
2022-12-11T04:26:45.451Z,49.61
2022-12-11T04:29:11.740Z,50.28
2022-12-11T04:31:38.023Z,51.59
2022-12-11T04:34:04.312Z,51.79
2022-12-11T04:36:30.591Z,51.28
2022-12-11T04:38:56.856Z,50.46
2022-12-11T04:41:23.139Z,51.73
2022-12-11T04:43:49.429Z,51.33
2022-12-11T04:46:19.459Z,49.62
2022-12-11T04:48:45.813Z,50.81
2022-12-11T04:51:12.611Z,50.17
2022-12-11T04:53:38.898Z,49.59
2022-12-11T04:56:05.867Z,49.17
2022-12-11T04:58:32.157Z,49.43
2022-12-11T05:00:58.443Z,49.70
2022-12-11T05:03:24.732Z,49.88
2022-12-11T05:05:51.497Z,51.64
2022-12-11T05:08:21.005Z,51.58
2022-12-11T05:10:57.434Z,51.71
2022-12-11T05:13:23.761Z,51.76
2022-12-11T05:15:50.090Z,51.44
2022-12-11T05:18:16.761Z,51.19
2022-12-11T05:20:43.048Z,51.30
2022-12-11T05:23:09.313Z,51.15
2022-12-11T05:25:35.596Z,50.89
2022-12-11T05:28:01.870Z,51.30
2022-12-11T05:30:28.149Z,51.78
2022-12-11T05:32:54.430Z,52.29
2022-12-11T05:35:20.688Z,51.68
2022-12-11T05:37:46.968Z,52.08
2022-12-11T05:40:13.252Z,52.68
2022-12-11T05:42:39.560Z,51.75
2022-12-11T05:45:06.151Z,51.94
2022-12-11T05:47:32.432Z,51.23
2022-12-11T05:49:58.693Z,51.23
2022-12-11T05:52:24.987Z,50.45
2022-12-11T05:54:51.259Z,49.95
2022-12-11T05:57:17.750Z,48.73
2022-12-11T05:59:44.043Z,48.86
2022-12-11T06:02:10.390Z,48.55
2022-12-11T06:04:36.747Z,49.12
2022-12-11T06:07:03.372Z,49.26
2022-12-11T06:09:29.964Z,49.90
2022-12-11T06:11:56.241Z,50.35
2022-12-11T06:14:22.532Z,49.63
2022-12-11T06:16:50.015Z,49.11
2022-12-11T06:19:18.215Z,48.76
2022-12-11T06:21:45.032Z,49.11
2022-12-11T06:24:11.409Z,50.00
2022-12-11T06:26:37.699Z,50.04
2022-12-11T06:29:08.879Z,50.98
2022-12-11T06:31:37.285Z,51.46
2022-12-11T06:34:03.627Z,52.92
2022-12-11T06:36:29.899Z,52.55
2022-12-11T06:38:56.177Z,51.92
2022-12-11T06:41:22.484Z,51.66
2022-12-11T06:43:48.830Z,51.29
2022-12-11T06:46:17.690Z,51.17
2022-12-11T06:48:44.084Z,51.64
2022-12-11T06:51:14.435Z,51.30
2022-12-11T06:53:40.774Z,51.20
2022-12-11T06:56:11.275Z,51.49
2022-12-11T06:58:37.630Z,51.46
2022-12-11T07:01:04.221Z,50.82
2022-12-11T07:03:30.573Z,49.99
2022-12-11T07:06:00.581Z,49.89
2022-12-11T07:08:27.824Z,49.68
2022-12-11T07:10:54.126Z,49.39
2022-12-11T07:13:20.401Z,49.56
2022-12-11T07:15:46.680Z,49.69
2022-12-11T07:18:12.932Z,49.46
2022-12-11T07:20:39.229Z,49.31
2022-12-11T07:23:05.550Z,49.34
2022-12-11T07:25:31.845Z,49.71
2022-12-11T07:27:58.124Z,49.58
2022-12-11T07:30:24.400Z,49.39
2022-12-11T07:32:50.708Z,49.73
2022-12-11T07:35:17.021Z,50.28
2022-12-11T07:37:44.777Z,50.45
2022-12-11T07:40:11.231Z,50.75
2022-12-11T07:42:41.423Z,50.98
2022-12-11T07:45:11.103Z,50.87
2022-12-11T07:47:37.557Z,50.36
2022-12-11T07:50:03.880Z,50.05
2022-12-11T07:52:30.136Z,49.80
2022-12-11T07:54:56.416Z,49.71
2022-12-11T07:57:22.712Z,49.72
2022-12-11T07:59:48.977Z,49.36
2022-12-11T08:02:15.282Z,49.55
2022-12-11T08:04:41.622Z,48.95
2022-12-11T08:07:07.900Z,48.98
2022-12-11T08:09:34.209Z,48.53
2022-12-11T08:12:00.516Z,48.50
2022-12-11T08:14:26.833Z,49.11
2022-12-11T08:16:53.253Z,49.07
2022-12-11T08:19:19.561Z,49.25
2022-12-11T08:21:45.926Z,49.14
2022-12-11T08:24:12.255Z,48.68
2022-12-11T08:26:38.546Z,48.38
2022-12-11T08:29:04.880Z,47.77
2022-12-11T08:31:31.376Z,47.77
2022-12-11T08:33:57.746Z,47.50
2022-12-11T08:36:24.106Z,47.21
2022-12-11T08:38:50.502Z,48.34
2022-12-11T08:41:17.537Z,48.80
2022-12-11T08:43:43.843Z,48.87
2022-12-11T08:46:10.491Z,48.64
2022-12-11T08:48:37.059Z,48.79
2022-12-11T08:51:04.666Z,49.14
2022-12-11T08:53:31.129Z,49.51
2022-12-11T08:56:01.221Z,48.43
2022-12-11T08:58:27.476Z,47.82
2022-12-11T09:00:53.814Z,47.12
2022-12-11T09:03:20.177Z,47.46
2022-12-11T09:05:46.452Z,47.36
2022-12-11T09:08:12.765Z,48.30
2022-12-11T09:10:39.064Z,47.89
2022-12-11T09:13:05.361Z,47.73
2022-12-11T09:15:31.695Z,47.47
2022-12-11T09:17:57.985Z,46.85
2022-12-11T09:20:24.325Z,46.73
2022-12-11T09:22:50.593Z,47.37
2022-12-11T09:25:16.883Z,47.23
2022-12-11T09:27:43.197Z,46.81
2022-12-11T09:30:09.545Z,46.63
2022-12-11T09:32:35.852Z,46.40
2022-12-11T09:35:02.130Z,47.19
2022-12-11T09:37:28.700Z,47.25
2022-12-11T09:39:54.992Z,46.65
2022-12-11T09:42:24.191Z,46.71
2022-12-11T09:44:52.915Z,47.65
2022-12-11T09:47:21.032Z,47.22
2022-12-11T09:49:47.796Z,46.48
2022-12-11T09:52:34.299Z,47.27
2022-12-11T09:55:01.273Z,47.88
2022-12-11T09:57:27.500Z,47.80
2022-12-11T10:00:04.440Z,47.83
2022-12-11T10:02:50.996Z,47.32
2022-12-11T10:05:17.295Z,47.36
2022-12-11T10:07:54.795Z,47.52
2022-12-11T10:10:27.209Z,47.50
2022-12-11T10:12:57.253Z,47.21
2022-12-11T10:15:33.547Z,47.72
2022-12-11T10:18:04.643Z,47.65
2022-12-11T10:20:35.026Z,47.33
2022-12-11T10:23:01.311Z,47.07
2022-12-11T10:25:29.550Z,46.30
2022-12-11T10:27:56.026Z,47.32
2022-12-11T10:30:28.366Z,47.80
2022-12-11T10:33:15.593Z,47.93
2022-12-11T10:35:51.992Z,47.76
2022-12-11T10:38:24.700Z,47.34
2022-12-11T10:40:52.415Z,47.20
2022-12-11T10:43:18.789Z,47.60
2022-12-11T10:45:52.428Z,47.19
2022-12-11T10:48:18.691Z,47.69
2022-12-11T10:50:45.790Z,48.11
2022-12-11T10:53:20.005Z,48.66
2022-12-11T10:55:46.318Z,47.73
2022-12-11T10:58:14.312Z,47.97
2022-12-11T11:00:40.691Z,47.95
2022-12-11T11:03:27.292Z,47.86
2022-12-11T11:06:06.672Z,46.87
2022-12-11T11:08:59.090Z,47.64
2022-12-11T11:11:36.706Z,47.48
2022-12-11T11:14:18.797Z,46.68
2022-12-11T11:16:45.897Z,45.56
2022-12-11T11:19:18.807Z,47.20
2022-12-11T11:21:49.046Z,46.98
2022-12-11T11:24:22.537Z,47.06
2022-12-11T11:27:12.141Z,47.58
2022-12-11T11:29:37.646Z,47.21
2022-12-11T11:32:14.672Z,46.23
2022-12-11T11:34:40.936Z,46.40
2022-12-11T11:37:15.494Z,46.73
2022-12-11T11:39:44.977Z,44.99
2022-12-11T11:42:18.991Z,44.57
2022-12-11T11:44:49.028Z,45.27
2022-12-11T11:47:17.331Z,45.46
2022-12-11T11:49:53.479Z,44.53
2022-12-11T11:52:28.377Z,44.02
2022-12-11T11:55:16.215Z,44.14
2022-12-11T11:57:57.183Z,44.30
2022-12-11T12:00:27.505Z,44.28
2022-12-11T12:02:59.461Z,44.14
2022-12-11T12:05:27.348Z,44.27
2022-12-11T12:08:12.385Z,43.61
2022-12-11T12:10:48.360Z,43.44
2022-12-11T12:13:47.642Z,43.60
2022-12-11T12:16:22.961Z,43.73
2022-12-11T12:19:11.925Z,44.37
2022-12-11T12:21:38.899Z,44.17
2022-12-11T12:24:24.065Z,44.40
2022-12-11T12:26:58.514Z,45.02
2022-12-11T12:29:33.814Z,44.94
2022-12-11T12:32:05.442Z,44.84
2022-12-11T12:34:31.665Z,44.92
2022-12-11T12:37:07.327Z,45.17
2022-12-11T12:39:37.576Z,45.00
2022-12-11T12:42:07.877Z,44.63
2022-12-11T12:44:37.760Z,44.22
2022-12-11T12:47:05.244Z,44.68
2022-12-11T12:49:40.690Z,44.70
2022-12-11T12:52:10.343Z,44.71
2022-12-11T12:54:36.697Z,44.84
2022-12-11T12:57:03.058Z,45.46
2022-12-11T12:59:29.385Z,45.45
2022-12-11T13:01:56.939Z,45.53
2022-12-11T13:04:55.602Z,45.52
2022-12-11T13:07:27.007Z,45.57
2022-12-11T13:09:56.797Z,45.86
2022-12-11T13:12:28.887Z,46.22
2022-12-11T13:14:58.244Z,46.08
2022-12-11T13:17:26.182Z,45.73
2022-12-11T13:20:03.625Z,45.45
2022-12-11T13:22:29.892Z,45.70
2022-12-11T13:25:01.479Z,45.66
2022-12-11T13:27:49.204Z,46.13
2022-12-11T13:30:15.462Z,46.10
2022-12-11T13:32:55.475Z,45.85
2022-12-11T13:35:21.771Z,46.50
2022-12-11T13:37:49.578Z,46.19
2022-12-11T13:40:17.396Z,46.21
2022-12-11T13:42:54.501Z,45.88
2022-12-11T13:45:33.250Z,45.60
2022-12-11T13:47:59.623Z,46.06
2022-12-11T13:50:26.795Z,45.90
2022-12-11T13:52:53.908Z,45.96
2022-12-11T13:55:26.337Z,45.99
2022-12-11T13:57:52.612Z,46.12
2022-12-11T14:00:30.044Z,45.68
2022-12-11T14:02:56.415Z,45.14
2022-12-11T14:05:22.725Z,45.22
2022-12-11T14:07:49.674Z,45.79
2022-12-11T14:10:17.264Z,46.29
2022-12-11T14:12:53.813Z,46.53
2022-12-11T14:15:20.171Z,46.69
2022-12-11T14:17:51.506Z,46.77
2022-12-11T14:20:25.359Z,46.41
2022-12-11T14:22:51.744Z,46.58
2022-12-11T14:25:20.114Z,46.70
2022-12-11T14:27:47.373Z,47.21
2022-12-11T14:30:14.422Z,47.46
2022-12-11T14:32:43.996Z,47.30
2022-12-11T14:35:14.109Z,47.49
2022-12-11T14:37:40.393Z,47.32
2022-12-11T14:40:08.218Z,47.07
2022-12-11T14:42:38.152Z,47.32
2022-12-11T14:45:07.298Z,47.61
2022-12-11T14:47:34.852Z,47.51
2022-12-11T14:50:05.927Z,47.92
2022-12-11T14:52:39.200Z,47.81
2022-12-11T14:55:06.555Z,47.42
2022-12-11T14:57:33.023Z,47.63
2022-12-11T14:59:59.305Z,47.84
2022-12-11T15:02:25.659Z,47.93
2022-12-11T15:05:10.800Z,47.57
2022-12-11T15:07:37.277Z,47.73
2022-12-11T15:10:04.043Z,47.96
2022-12-11T15:12:30.382Z,47.82
2022-12-11T15:15:00.820Z,48.16
2022-12-11T15:17:27.156Z,47.96
2022-12-11T15:19:54.558Z,48.20
2022-12-11T15:22:23.628Z,48.71
2022-12-11T15:24:50.361Z,48.67
2022-12-11T15:27:22.785Z,49.05
2022-12-11T15:29:49.056Z,48.95
2022-12-11T15:32:18.894Z,48.94
2022-12-11T15:34:51.290Z,48.76
2022-12-11T15:37:17.535Z,48.96
2022-12-11T15:39:43.819Z,49.48
2022-12-11T15:42:10.108Z,49.21
2022-12-11T15:44:36.382Z,48.61
2022-12-11T15:47:11.285Z,48.01
2022-12-11T15:49:37.700Z,48.12
2022-12-11T15:52:04.071Z,48.42
2022-12-11T15:54:30.500Z,48.70
2022-12-11T15:56:56.961Z,48.64
2022-12-11T15:59:23.230Z,48.68
2022-12-11T16:01:49.529Z,48.52
2022-12-11T16:04:15.840Z,48.08
2022-12-11T16:06:45.225Z,48.24
2022-12-11T16:09:11.551Z,47.96
2022-12-11T16:11:37.876Z,48.38
2022-12-11T16:14:04.458Z,48.07
2022-12-11T16:16:30.992Z,47.93
2022-12-11T16:18:57.254Z,48.21
2022-12-11T16:21:23.520Z,48.55
2022-12-11T16:23:49.799Z,48.58
2022-12-11T16:26:16.079Z,48.72
2022-12-11T16:28:42.472Z,48.41
2022-12-11T16:31:12.484Z,48.36
2022-12-11T16:33:39.035Z,48.11
2022-12-11T16:36:15.047Z,47.84
2022-12-11T16:38:41.770Z,47.49
2022-12-11T16:41:08.039Z,47.45
2022-12-11T16:43:34.320Z,47.64
2022-12-11T16:46:00.739Z,47.71
2022-12-11T16:48:27.085Z,47.68
2022-12-11T16:50:54.438Z,47.37
2022-12-11T16:53:21.369Z,47.31
2022-12-11T16:55:47.666Z,46.98
2022-12-11T16:58:19.966Z,47.11
2022-12-11T17:00:46.816Z,47.12
2022-12-11T17:03:13.290Z,47.11
2022-12-11T17:05:39.904Z,47.43
2022-12-11T17:08:06.585Z,47.97
2022-12-11T17:10:32.927Z,47.55
2022-12-11T17:12:59.197Z,46.90
2022-12-11T17:15:25.490Z,46.61
2022-12-11T17:17:51.747Z,46.72
2022-12-11T17:20:18.261Z,47.06
2022-12-11T17:22:45.890Z,47.65
2022-12-11T17:25:12.429Z,47.67
2022-12-11T17:27:38.964Z,47.79
2022-12-11T17:30:05.481Z,47.88
2022-12-11T17:32:31.752Z,47.92
2022-12-11T17:34:58.034Z,47.57
2022-12-11T17:37:24.324Z,47.17
2022-12-11T17:39:50.633Z,46.68
2022-12-11T17:42:16.915Z,46.36
2022-12-11T17:44:45.326Z,46.23
2022-12-11T17:47:12.041Z,46.14
2022-12-11T17:49:41.427Z,46.41
2022-12-11T17:52:07.781Z,47.04
2022-12-11T17:54:34.844Z,47.02
2022-12-11T17:57:01.553Z,47.00
2022-12-11T17:59:27.826Z,47.43
2022-12-11T18:01:54.187Z,47.34
2022-12-11T18:04:20.482Z,47.61
2022-12-11T18:06:46.764Z,47.41
2022-12-11T18:09:13.029Z,47.31
2022-12-11T18:11:39.284Z,47.77
2022-12-11T18:14:05.663Z,47.72
2022-12-11T18:16:33.079Z,47.34
2022-12-11T18:18:59.427Z,46.93
2022-12-11T18:21:26.943Z,47.05
2022-12-11T18:23:53.236Z,46.84
2022-12-11T18:26:19.759Z,47.25
2022-12-11T18:28:46.523Z,47.00
2022-12-11T18:31:13.444Z,46.91
2022-12-11T18:33:40.136Z,47.10
2022-12-11T18:36:06.643Z,47.35
2022-12-11T18:38:33.482Z,47.41
2022-12-11T18:41:03.822Z,47.73
2022-12-11T18:43:30.104Z,48.02
2022-12-11T18:45:56.519Z,47.76
2022-12-11T18:48:22.783Z,47.41
2022-12-11T18:50:49.355Z,47.88
2022-12-11T18:53:16.029Z,47.98
2022-12-11T18:55:46.148Z,48.16
2022-12-11T18:58:12.743Z,48.16
2022-12-11T19:00:39.864Z,48.08
2022-12-11T19:03:06.737Z,48.24
2022-12-11T19:05:33.664Z,48.46
2022-12-11T19:08:00.201Z,48.36
2022-12-11T19:10:26.703Z,49.03
2022-12-11T19:12:53.001Z,49.36
2022-12-11T19:15:23.534Z,49.21
2022-12-11T19:17:50.385Z,49.19
2022-12-11T19:20:47.645Z,49.02
2022-12-11T19:23:03.078Z,48.36
2022-12-11T19:25:29.361Z,48.06
2022-12-11T19:27:56.934Z,47.45
2022-12-11T19:30:23.561Z,47.08
2022-12-11T19:32:49.846Z,46.89
2022-12-11T19:35:17.547Z,46.37
2022-12-11T19:37:43.810Z,46.89
2022-12-11T19:40:10.339Z,47.15
2022-12-11T19:42:36.652Z,46.55
2022-12-11T19:45:02.969Z,46.48
2022-12-11T19:47:29.284Z,46.45
2022-12-11T19:49:56.490Z,46.50
2022-12-11T19:52:22.809Z,46.67
2022-12-11T19:54:49.086Z,46.48
2022-12-11T19:57:15.371Z,45.98
2022-12-11T19:59:41.672Z,46.46
2022-12-11T20:02:09.034Z,46.61
2022-12-11T20:04:35.365Z,46.31
2022-12-11T20:07:01.755Z,46.29
2022-12-11T20:09:28.192Z,46.33
2022-12-11T20:11:54.452Z,46.39
2022-12-11T20:14:24.094Z,46.46
2022-12-11T20:19:36.686Z,46.56
2022-12-11T20:22:02.951Z,46.54
2022-12-11T20:24:29.552Z,46.54
2022-12-11T20:26:57.097Z,45.75
2022-12-11T20:29:23.627Z,45.17
2022-12-11T20:31:50.614Z,45.01
2022-12-11T20:34:16.936Z,45.28
2022-12-11T20:36:43.350Z,45.88
2022-12-11T20:39:10.049Z,46.63
2022-12-11T20:41:36.332Z,47.08
2022-12-11T20:44:02.612Z,47.18
2022-12-11T20:46:28.900Z,47.07
2022-12-11T20:48:55.671Z,46.84
2022-12-11T20:51:25.708Z,46.92
2022-12-11T20:53:58.071Z,47.40
2022-12-11T20:56:24.672Z,47.33
2022-12-11T20:58:50.952Z,47.18
2022-12-11T21:01:17.840Z,46.70
2022-12-11T21:03:44.241Z,46.78
2022-12-11T21:06:22.908Z,47.56
2022-12-11T21:08:49.177Z,47.44
2022-12-11T21:11:15.454Z,46.65
2022-12-11T21:13:41.834Z,45.82
2022-12-11T21:16:08.460Z,45.76
2022-12-11T21:18:34.789Z,46.23
2022-12-11T21:21:01.061Z,45.56
2022-12-11T21:23:27.336Z,45.70
2022-12-11T21:25:53.620Z,45.65
2022-12-11T21:28:20.031Z,45.77
2022-12-11T21:30:46.398Z,45.71
2022-12-11T21:33:12.665Z,46.05
2022-12-11T21:35:38.939Z,45.89
2022-12-11T21:38:05.230Z,45.69
2022-12-11T21:40:31.516Z,45.43
2022-12-11T21:42:57.804Z,46.31
2022-12-11T21:45:59.912Z,45.78
2022-12-11T21:48:10.998Z,46.06
2022-12-11T21:50:37.284Z,45.88
2022-12-11T21:53:03.627Z,45.41
2022-12-11T21:55:29.896Z,46.04
2022-12-11T21:57:56.161Z,45.28
2022-12-11T22:00:22.678Z,45.93
2022-12-11T22:02:49.028Z,44.29
2022-12-11T22:05:15.335Z,44.07
2022-12-11T22:07:41.610Z,44.10
2022-12-11T22:10:08.159Z,44.33
2022-12-11T22:12:34.510Z,44.25
2022-12-11T22:15:00.875Z,44.72
2022-12-11T22:17:27.179Z,44.49
2022-12-11T22:19:53.563Z,44.46
2022-12-11T22:22:19.841Z,44.35
2022-12-11T22:24:46.268Z,44.63
2022-12-11T22:27:12.547Z,44.13
2022-12-11T22:29:38.816Z,44.49
2022-12-11T22:32:05.092Z,44.21
2022-12-11T22:34:31.429Z,44.51
2022-12-11T22:36:57.696Z,44.54
2022-12-11T22:39:24.766Z,44.30
2022-12-11T22:41:51.110Z,44.03
2022-12-11T22:44:18.073Z,44.39
2022-12-11T22:46:49.620Z,44.31
2022-12-11T22:49:16.710Z,44.33
2022-12-11T22:51:42.989Z,44.11
2022-12-11T22:54:09.393Z,43.87
2022-12-11T22:56:35.676Z,44.07
2022-12-11T22:59:01.951Z,44.00
2022-12-11T23:01:28.336Z,43.78
2022-12-11T23:03:54.626Z,43.71
2022-12-11T23:06:21.679Z,43.94
2022-12-11T23:08:48.011Z,44.46
2022-12-11T23:11:14.288Z,44.76
2022-12-11T23:13:40.596Z,44.40
2022-12-11T23:16:06.875Z,44.17
2022-12-11T23:18:33.147Z,44.65
2022-12-11T23:20:59.450Z,45.33
2022-12-11T23:23:25.727Z,45.69
2022-12-11T23:25:51.993Z,46.17
2022-12-11T23:28:18.523Z,46.57
2022-12-11T23:30:44.859Z,46.45
2022-12-11T23:33:11.182Z,46.64
2022-12-11T23:35:37.443Z,46.62
2022-12-11T23:38:03.721Z,46.39
2022-12-11T23:40:30.032Z,45.67
2022-12-11T23:42:56.325Z,45.43
2022-12-11T23:45:22.711Z,44.91
2022-12-11T23:47:49.044Z,44.66
2022-12-11T23:50:15.329Z,44.80
2022-12-11T23:52:41.591Z,44.84
2022-12-11T23:55:08.095Z,45.18
2022-12-11T23:57:34.508Z,45.17
